Time;durP1;ratioP1;P1;durP2;ratioP2;P2;SDS_P1;SDS_P2;PMS_P1;PMS_P2;Temp;Humidity;BMP_temperature;BMP_pressure;BME280_temperature;BME280_humidity;BME280_pressure;Samples;Min_cycle;Max_cycle;Signal;HPM_P1;HPM_P2
2022/08/02 00:01:49;;;;;;;;;;;17.30;99.90;;;;;;4962531;28;21925;-76
2022/08/02 00:04:15;;;;;;;;;;;17.30;99.90;;;;;;4958792;28;20016;-76
2022/08/02 00:06:40;;;;;;;;;;;17.20;99.90;;;;;;4966385;28;19955;-76
2022/08/02 00:09:06;;;;;;;;;;;17.10;99.90;;;;;;4960279;28;19924;-76
2022/08/02 00:11:31;;;;;;;;;;;17.00;99.90;;;;;;4960525;28;19920;-76
2022/08/02 00:13:57;;;;;;;;;;;16.90;99.90;;;;;;4261870;28;10000698;-76
2022/08/02 00:16:23;;;;;;;;;;;16.90;99.90;;;;;;4958109;28;19918;-76
2022/08/02 00:18:48;;;;;;;;;;;16.90;99.90;;;;;;4960169;28;19922;-76
2022/08/02 00:21:14;;;;;;;;;;;16.80;99.90;;;;;;4981481;28;19914;-76
2022/08/02 00:23:40;;;;;;;;;;;16.80;99.90;;;;;;4967455;28;19913;-76
2022/08/02 00:26:06;;;;;;;;;;;16.90;99.90;;;;;;4967942;28;19914;-76
2022/08/02 00:28:31;;;;;;;;;;;16.90;99.90;;;;;;4964745;28;20449;-75
2022/08/02 00:30:57;;;;;;;;;;;17.00;99.90;;;;;;4961094;28;20329;-76
2022/08/02 00:33:23;;;;;;;;;;;17.00;99.90;;;;;;4960871;28;19924;-76
2022/08/02 00:35:49;;;;;;;;;;;17.00;99.90;;;;;;4959258;28;19913;-76
2022/08/02 00:38:14;;;;;;;;;;;17.00;99.90;;;;;;4958232;28;20010;-76
2022/08/02 00:40:45;;;;;;;;;;;17.00;99.90;;;;;;4959092;28;20007;-75
2022/08/02 00:43:10;;;;;;;;;;;17.00;99.90;;;;;;4961334;28;20113;-76
2022/08/02 00:45:37;;;;;;;;;;;16.90;99.90;;;;;;4961865;28;19914;-76
2022/08/02 00:48:03;;;;;;;;;;;16.90;99.90;;;;;;4961706;28;20504;-75
2022/08/02 00:50:29;;;;;;;;;;;16.90;99.90;;;;;;4963103;28;19996;-76
2022/08/02 00:52:55;;;;;;;;;;;16.90;99.90;;;;;;4961351;28;19921;-76
2022/08/02 00:55:21;;;;;;;;;;;16.80;99.90;;;;;;4959337;28;20373;-76
2022/08/02 00:57:46;;;;;;;;;;;16.80;99.90;;;;;;4964280;28;19920;-76
2022/08/02 01:00:12;;;;;;;;;;;16.80;99.90;;;;;;4968958;28;19920;-76
2022/08/02 01:02:37;;;;;;;;;;;16.90;99.90;;;;;;4968073;28;20471;-76
2022/08/02 01:05:03;;;;;;;;;;;16.80;99.90;;;;;;4960625;28;19980;-76
2022/08/02 01:07:29;;;;;;;;;;;16.80;99.90;;;;;;4971523;28;19924;-75
2022/08/02 01:09:54;;;;;;;;;;;16.70;99.90;;;;;;4966751;28;19965;-75
2022/08/02 01:12:20;;;;;;;;;;;16.70;99.90;;;;;;4963931;28;19921;-75
2022/08/02 01:14:46;;;;;;;;;;;16.70;99.90;;;;;;4961679;28;20052;-75
2022/08/02 01:17:12;;;;;;;;;;;16.70;99.90;;;;;;4961633;28;19918;-75
2022/08/02 01:19:37;;;;;;;;;;;16.70;99.90;;;;;;4962184;28;21455;-76
2022/08/02 01:22:03;;;;;;;;;;;16.70;99.90;;;;;;4961143;28;19936;-75
2022/08/02 01:24:41;;;;;;;;;;;16.70;99.90;;;;;;4960310;28;19928;-75
2022/08/02 01:27:21;;;;;;;;;;;16.70;99.90;;;;;;4963077;28;19964;-75
2022/08/02 01:29:49;;;;;;;;;;;16.70;99.90;;;;;;4960347;28;19917;-75
2022/08/02 01:32:22;;;;;;;;;;;16.70;99.90;;;;;;4964796;28;20496;-75
2022/08/02 01:34:56;;;;;;;;;;;16.70;99.90;;;;;;4958871;28;19914;-75
2022/08/02 01:37:28;;;;;;;;;;;16.60;99.90;;;;;;4959802;28;19918;-75
2022/08/02 01:39:56;;;;;;;;;;;16.70;99.90;;;;;;4960023;28;19917;-75
2022/08/02 01:42:23;;;;;;;;;;;16.60;99.90;;;;;;4958282;28;20325;-75
2022/08/02 01:44:50;;;;;;;;;;;16.70;99.90;;;;;;4959319;28;20437;-75
2022/08/02 01:47:21;;;;;;;;;;;16.70;99.90;;;;;;4965351;28;19918;-75
2022/08/02 01:49:48;;;;;;;;;;;16.70;99.90;;;;;;4954628;28;19918;-77
2022/08/02 01:52:20;;;;;;;;;;;16.70;99.90;;;;;;4959916;28;20397;-75
2022/08/02 01:55:04;;;;;;;;;;;16.80;99.90;;;;;;4959616;28;19913;-75
2022/08/02 01:57:51;;;;;;;;;;;16.70;99.90;;;;;;4963667;28;21892;-74
2022/08/02 02:00:18;;;;;;;;;;;16.60;99.90;;;;;;4956296;28;19914;-77
2022/08/02 02:02:46;;;;;;;;;;;16.50;99.90;;;;;;4960267;28;19914;-77
2022/08/02 02:05:22;;;;;;;;;;;16.50;99.90;;;;;;4958378;28;19921;-78
2022/08/02 02:07:49;;;;;;;;;;;16.40;99.90;;;;;;4959337;28;19918;-76
2022/08/02 02:10:15;;;;;;;;;;;16.40;99.90;;;;;;4958610;28;19917;-76
2022/08/02 02:12:46;;;;;;;;;;;16.30;99.90;;;;;;4958713;28;20488;-77
2022/08/02 02:15:12;;;;;;;;;;;16.30;99.90;;;;;;4959599;28;19945;-76
2022/08/02 02:17:41;;;;;;;;;;;16.30;99.90;;;;;;4958876;28;20765;-74
2022/08/02 02:20:07;;;;;;;;;;;16.30;99.90;;;;;;4947712;28;19923;-76
2022/08/02 02:22:33;;;;;;;;;;;16.30;99.90;;;;;;4959254;28;19921;-76
2022/08/02 02:24:58;;;;;;;;;;;16.30;99.90;;;;;;4957962;28;19914;-76
2022/08/02 02:27:24;;;;;;;;;;;16.30;99.90;;;;;;4959497;28;19918;-76
2022/08/02 02:29:50;;;;;;;;;;;16.30;99.90;;;;;;4961385;28;19922;-76
2022/08/02 02:32:17;;;;;;;;;;;16.30;99.90;;;;;;4960164;28;19914;-76
2022/08/02 02:34:45;;;;;;;;;;;16.40;99.90;;;;;;4958085;28;19922;-76
2022/08/02 02:37:18;;;;;;;;;;;16.50;99.90;;;;;;4958909;28;19964;-76
2022/08/02 02:39:44;;;;;;;;;;;16.60;99.90;;;;;;4958721;28;19914;-76
2022/08/02 02:42:12;;;;;;;;;;;16.70;99.90;;;;;;4960698;28;19914;-76
2022/08/02 02:44:38;;;;;;;;;;;16.70;99.90;;;;;;4958230;28;19914;-76
2022/08/02 02:47:04;;;;;;;;;;;16.70;99.90;;;;;;4960961;28;20060;-76
2022/08/02 02:49:31;;;;;;;;;;;16.60;99.90;;;;;;4945182;28;20016;-76
2022/08/02 02:51:57;;;;;;;;;;;16.70;99.90;;;;;;4959892;28;19936;-76
2022/08/02 02:54:23;;;;;;;;;;;16.60;99.90;;;;;;4957663;28;20467;-76
2022/08/02 02:56:49;;;;;;;;;;;16.60;99.90;;;;;;4958516;28;19921;-76
2022/08/02 02:59:15;;;;;;;;;;;16.60;99.90;;;;;;4962205;28;19914;-76
2022/08/02 03:01:40;;;;;;;;;;;16.70;99.90;;;;;;4959451;28;19914;-75
2022/08/02 03:04:08;;;;;;;;;;;16.70;99.90;;;;;;4973934;28;19921;-75
2022/08/02 03:06:35;;;;;;;;;;;16.70;99.90;;;;;;4979242;28;20368;-76
2022/08/02 03:09:01;;;;;;;;;;;16.60;99.90;;;;;;4969687;28;19933;-76
2022/08/02 03:11:28;;;;;;;;;;;16.60;99.90;;;;;;4966265;28;19914;-76
2022/08/02 03:14:01;;;;;;;;;;;16.60;99.90;;;;;;4960675;28;19920;-76
2022/08/02 03:16:27;;;;;;;;;;;16.60;99.90;;;;;;4960907;28;19914;-76
2022/08/02 03:18:53;;;;;;;;;;;16.60;99.90;;;;;;4961462;28;19924;-77
2022/08/02 03:21:19;;;;;;;;;;;16.70;99.90;;;;;;4960893;28;19914;-76
2022/08/02 03:23:45;;;;;;;;;;;16.80;99.90;;;;;;4962484;28;19921;-75
2022/08/02 03:26:11;;;;;;;;;;;17.00;99.90;;;;;;4961334;28;19913;-76
2022/08/02 03:28:36;;;;;;;;;;;17.00;99.90;;;;;;4976554;28;20415;-76
2022/08/02 03:31:02;;;;;;;;;;;17.10;99.90;;;;;;4970667;28;19930;-76
2022/08/02 03:33:28;;;;;;;;;;;17.10;99.90;;;;;;4968003;28;19960;-76
2022/08/02 03:35:55;;;;;;;;;;;17.10;99.90;;;;;;4968770;28;19920;-76
2022/08/02 03:38:21;;;;;;;;;;;17.10;99.90;;;;;;4962783;28;19960;-76
2022/08/02 03:40:47;;;;;;;;;;;17.10;99.90;;;;;;4962786;28;20416;-76
2022/08/02 03:43:14;;;;;;;;;;;17.10;99.90;;;;;;4974705;28;19920;-76
2022/08/02 03:45:41;;;;;;;;;;;17.10;99.90;;;;;;4993061;28;20332;-76
2022/08/02 03:48:07;;;;;;;;;;;17.10;99.90;;;;;;4970191;28;19922;-76
2022/08/02 03:50:35;;;;;;;;;;;17.20;99.90;;;;;;4967173;28;19917;-76
2022/08/02 03:53:00;;;;;;;;;;;17.30;99.90;;;;;;4966204;28;19920;-75
2022/08/02 03:55:26;;;;;;;;;;;17.30;99.90;;;;;;4965187;28;19914;-76
2022/08/02 03:57:52;;;;;;;;;;;17.40;99.90;;;;;;4963986;28;20355;-76
2022/08/02 04:00:18;;;;;;;;;;;17.40;99.90;;;;;;4972255;28;19949;-76
2022/08/02 04:02:44;;;;;;;;;;;17.50;99.90;;;;;;4969817;28;19920;-76
2022/08/02 04:05:09;;;;;;;;;;;17.50;99.90;;;;;;4965379;28;19925;-75
2022/08/02 04:07:35;;;;;;;;;;;17.60;99.90;;;;;;4977129;28;19944;-75
2022/08/02 04:10:00;;;;;;;;;;;17.70;99.90;;;;;;4968724;28;20399;-76
2022/08/02 04:12:26;;;;;;;;;;;17.70;99.90;;;;;;4947607;28;19961;-75
2022/08/02 04:14:51;;;;;;;;;;;17.80;99.90;;;;;;4962241;28;20252;-76
2022/08/02 04:17:18;;;;;;;;;;;17.80;99.90;;;;;;4962065;28;19915;-75
2022/08/02 04:19:55;;;;;;;;;;;17.80;99.90;;;;;;4960902;28;19913;-75
2022/08/02 04:22:24;;;;;;;;;;;17.90;99.90;;;;;;4961435;28;19925;-75
2022/08/02 04:24:50;;;;;;;;;;;17.90;99.90;;;;;;4960492;28;19917;-76
2022/08/02 04:27:18;;;;;;;;;;;17.90;99.90;;;;;;4962492;28;20116;-76
2022/08/02 04:29:44;;;;;;;;;;;17.90;99.90;;;;;;4964520;28;20052;-76
2022/08/02 04:32:12;;;;;;;;;;;17.90;99.90;;;;;;4960199;28;19918;-75
2022/08/02 04:34:37;;;;;;;;;;;18.00;99.90;;;;;;4959427;28;19914;-76
2022/08/02 04:37:03;;;;;;;;;;;18.10;99.90;;;;;;4960537;28;20436;-75
2022/08/02 04:39:28;;;;;;;;;;;18.00;99.90;;;;;;4972389;28;19913;-76
2022/08/02 04:41:54;;;;;;;;;;;18.10;99.90;;;;;;4976722;28;19996;-75
2022/08/02 04:44:20;;;;;;;;;;;18.20;99.90;;;;;;4963111;28;19921;-75
2022/08/02 04:46:45;;;;;;;;;;;18.30;99.90;;;;;;4962486;28;20290;-73
2022/08/02 04:49:11;;;;;;;;;;;18.40;99.90;;;;;;4959613;28;20358;-75
2022/08/02 04:51:37;;;;;;;;;;;18.40;99.90;;;;;;4962425;28;20376;-76
2022/08/02 04:54:03;;;;;;;;;;;18.50;99.90;;;;;;4962422;28;20384;-75
2022/08/02 04:56:28;;;;;;;;;;;18.60;99.90;;;;;;4961413;28;19967;-76
2022/08/02 04:58:54;;;;;;;;;;;18.60;99.90;;;;;;4963345;28;19921;-75
2022/08/02 05:01:20;;;;;;;;;;;18.70;99.90;;;;;;4964438;28;19917;-75
2022/08/02 05:03:45;;;;;;;;;;;18.70;99.90;;;;;;4959575;28;19976;-76
2022/08/02 05:06:11;;;;;;;;;;;18.70;99.90;;;;;;4960749;28;21954;-76
2022/08/02 05:08:36;;;;;;;;;;;18.80;99.90;;;;;;4960181;28;19947;-75
2022/08/02 05:11:02;;;;;;;;;;;18.80;99.90;;;;;;4960365;28;19913;-76
2022/08/02 05:13:27;;;;;;;;;;;18.90;99.90;;;;;;4959020;28;19926;-77
2022/08/02 05:15:53;;;;;;;;;;;18.90;99.90;;;;;;4960646;28;20388;-75
2022/08/02 05:18:18;;;;;;;;;;;19.00;99.90;;;;;;4961139;28;19918;-76
2022/08/02 05:20:44;;;;;;;;;;;19.00;99.90;;;;;;4960175;28;19918;-74
2022/08/02 05:23:09;;;;;;;;;;;19.10;99.90;;;;;;4962850;28;19986;-75
2022/08/02 05:25:35;;;;;;;;;;;19.10;99.90;;;;;;4959950;28;19913;-75
2022/08/02 05:28:00;;;;;;;;;;;19.20;99.90;;;;;;4963180;28;21757;-76
2022/08/02 05:30:26;;;;;;;;;;;19.20;99.90;;;;;;4959258;28;19914;-76
2022/08/02 05:32:52;;;;;;;;;;;19.20;99.90;;;;;;4959874;28;19921;-76
2022/08/02 05:35:18;;;;;;;;;;;19.30;99.90;;;;;;4961618;28;20004;-77
2022/08/02 05:37:44;;;;;;;;;;;19.40;99.90;;;;;;4957923;28;19914;-76
2022/08/02 05:40:10;;;;;;;;;;;19.40;99.90;;;;;;4958904;28;19918;-76
2022/08/02 05:42:35;;;;;;;;;;;19.40;99.90;;;;;;4960495;28;20392;-76
2022/08/02 05:45:01;;;;;;;;;;;19.40;99.90;;;;;;4960008;28;20048;-75
2022/08/02 05:47:26;;;;;;;;;;;19.40;99.90;;;;;;4963625;28;19918;-76
2022/08/02 05:49:52;;;;;;;;;;;19.30;99.90;;;;;;4972772;28;19914;-77
2022/08/02 05:52:18;;;;;;;;;;;19.20;99.90;;;;;;4969362;28;20320;-76
2022/08/02 05:54:56;;;;;;;;;;;19.20;99.90;;;;;;4961604;28;19917;-76
2022/08/02 05:57:22;;;;;;;;;;;19.10;99.90;;;;;;4961370;28;21793;-77
2022/08/02 05:59:53;;;;;;;;;;;19.10;99.90;;;;;;4969582;28;19920;-75
2022/08/02 06:02:27;;;;;;;;;;;19.10;99.90;;;;;;4960008;28;19914;-76
2022/08/02 06:05:13;;;;;;;;;;;19.20;99.90;;;;;;4973079;28;19929;-75
2022/08/02 06:07:42;;;;;;;;;;;19.40;99.90;;;;;;4966255;28;19921;-76
2022/08/02 06:10:08;;;;;;;;;;;19.50;99.90;;;;;;4965259;28;20452;-76
2022/08/02 06:12:53;;;;;;;;;;;19.70;99.90;;;;;;4963974;28;20781;-76
2022/08/02 06:15:19;;;;;;;;;;;19.90;99.90;;;;;;4961137;28;19957;-76
2022/08/02 06:17:44;;;;;;;;;;;20.10;99.90;;;;;;4958632;28;20008;-75
2022/08/02 06:20:11;;;;;;;;;;;20.20;99.90;;;;;;4959397;28;19914;-75
2022/08/02 06:22:39;;;;;;;;;;;20.20;99.90;;;;;;4959131;28;22146;-76
2022/08/02 06:25:05;;;;;;;;;;;20.20;99.90;;;;;;4956334;28;20021;-75
2022/08/02 06:27:31;;;;;;;;;;;20.30;99.90;;;;;;4956987;28;19963;-78
2022/08/02 06:29:57;;;;;;;;;;;20.20;99.90;;;;;;4946378;28;20365;-76
2022/08/02 06:32:25;;;;;;;;;;;20.20;99.90;;;;;;4958982;28;19921;-75
2022/08/02 06:34:50;;;;;;;;;;;20.20;99.90;;;;;;4965527;28;19924;-76
2022/08/02 06:37:34;;;;;;;;;;;20.20;99.90;;;;;;4959941;28;20388;-76
2022/08/02 06:40:03;;;;;;;;;;;20.20;99.90;;;;;;4962606;28;20127;-75
2022/08/02 06:42:37;;;;;;;;;;;20.30;99.90;;;;;;4954471;28;20309;-75
2022/08/02 06:45:03;;;;;;;;;;;20.50;99.90;;;;;;4960901;28;19914;-76
2022/08/02 06:47:28;;;;;;;;;;;20.60;99.90;;;;;;4953940;28;19929;-74
2022/08/02 06:49:54;;;;;;;;;;;20.60;99.90;;;;;;4972579;28;20519;-75
2022/08/02 06:52:24;;;;;;;;;;;20.60;99.90;;;;;;4970720;28;20419;-75
2022/08/02 06:54:50;;;;;;;;;;;20.60;99.90;;;;;;4965436;28;20443;-73
2022/08/02 06:57:15;;;;;;;;;;;20.50;99.90;;;;;;4973311;28;20664;-74
2022/08/02 06:59:41;;;;;;;;;;;20.50;99.90;;;;;;4959550;28;19917;-75
2022/08/02 07:02:07;;;;;;;;;;;20.40;99.90;;;;;;4967972;28;19961;-74
2022/08/02 07:04:33;;;;;;;;;;;20.40;99.90;;;;;;4969065;28;20381;-74
2022/08/02 07:06:59;;;;;;;;;;;20.30;99.90;;;;;;4968631;28;19929;-74
2022/08/02 07:09:25;;;;;;;;;;;20.50;99.90;;;;;;4963685;28;19918;-76
2022/08/02 07:11:51;;;;;;;;;;;20.60;99.90;;;;;;4955500;28;19917;-74
2022/08/02 07:14:16;;;;;;;;;;;20.80;99.90;;;;;;4950915;28;20383;-74
2022/08/02 07:16:42;;;;;;;;;;;21.10;99.90;;;;;;4937909;28;20689;-75
2022/08/02 07:19:08;;;;;;;;;;;21.40;99.90;;;;;;4955727;28;19917;-74
2022/08/02 07:21:33;;;;;;;;;;;21.70;99.90;;;;;;4951859;28;20407;-75
2022/08/02 07:23:59;;;;;;;;;;;22.10;99.90;;;;;;4959616;28;20385;-74
2022/08/02 07:26:24;;;;;;;;;;;22.30;99.90;;;;;;4951169;28;20475;-75
2022/08/02 07:28:50;;;;;;;;;;;22.40;99.90;;;;;;4948682;28;19925;-74
2022/08/02 07:31:15;;;;;;;;;;;22.40;99.90;;;;;;4960568;28;19925;-73
2022/08/02 07:33:41;;;;;;;;;;;22.50;99.90;;;;;;4959448;28;19934;-73
2022/08/02 07:36:07;;;;;;;;;;;22.40;99.90;;;;;;4948936;28;19964;-74
2022/08/02 07:38:33;;;;;;;;;;;22.50;99.90;;;;;;4960801;28;20388;-73
2022/08/02 07:40:58;;;;;;;;;;;22.60;99.90;;;;;;4950567;28;19914;-74
2022/08/02 07:43:24;;;;;;;;;;;22.80;99.90;;;;;;4949569;28;19932;-73
2022/08/02 07:45:49;;;;;;;;;;;22.70;99.90;;;;;;4956912;28;20000;-74
2022/08/02 07:48:15;;;;;;;;;;;22.70;99.90;;;;;;4957411;28;19930;-74
2022/08/02 07:50:40;;;;;;;;;;;22.60;99.90;;;;;;4960914;28;20431;-73
2022/08/02 07:53:06;;;;;;;;;;;22.50;99.90;;;;;;4952322;28;19964;-76
2022/08/02 07:55:31;;;;;;;;;;;22.70;99.90;;;;;;4950885;28;19913;-73
2022/08/02 07:57:57;;;;;;;;;;;22.60;99.90;;;;;;4940806;28;19940;-74
2022/08/02 08:00:22;;;;;;;;;;;22.50;99.90;;;;;;4954729;28;19917;-76
2022/08/02 08:02:48;;;;;;;;;;;22.30;99.90;;;;;;4951155;28;19917;-74
2022/08/02 08:05:14;;;;;;;;;;;22.20;99.90;;;;;;4946186;28;19976;-73
2022/08/02 08:07:39;;;;;;;;;;;22.00;99.90;;;;;;4953891;28;21244;-73
2022/08/02 08:10:05;;;;;;;;;;;22.00;99.90;;;;;;4959944;28;19922;-74
2022/08/02 08:12:31;;;;;;;;;;;22.20;99.90;;;;;;4964714;28;19949;-77
2022/08/02 08:14:56;;;;;;;;;;;22.60;99.90;;;;;;4948411;28;19914;-75
2022/08/02 08:17:22;;;;;;;;;;;23.00;99.90;;;;;;4961147;28;19953;-74
2022/08/02 08:19:47;;;;;;;;;;;23.50;99.90;;;;;;4964710;28;20411;-74
2022/08/02 08:22:13;;;;;;;;;;;23.90;99.90;;;;;;4960981;28;19960;-74
2022/08/02 08:24:39;;;;;;;;;;;24.10;99.90;;;;;;4965544;28;19917;-74
2022/08/02 08:27:05;;;;;;;;;;;24.20;99.90;;;;;;4966415;28;20011;-74
2022/08/02 08:29:30;;;;;;;;;;;23.90;99.90;;;;;;4968093;28;20317;-74
2022/08/02 08:31:56;;;;;;;;;;;23.60;99.90;;;;;;4968380;28;19933;-74
2022/08/02 08:34:23;;;;;;;;;;;23.50;99.90;;;;;;4967314;28;19917;-74
2022/08/02 08:36:48;;;;;;;;;;;23.40;99.90;;;;;;4960927;28;19918;-74
2022/08/02 08:39:14;;;;;;;;;;;23.10;99.90;;;;;;4962232;28;19918;-74
2022/08/02 08:41:41;;;;;;;;;;;22.80;99.90;;;;;;4959758;28;20431;-74
2022/08/02 08:44:07;;;;;;;;;;;22.60;99.90;;;;;;4959512;28;21205;-74
2022/08/02 08:46:34;;;;;;;;;;;22.50;99.90;;;;;;4963610;28;19919;-74
2022/08/02 08:49:08;;;;;;;;;;;22.40;99.90;;;;;;4960834;28;20524;-73
2022/08/02 08:51:37;;;;;;;;;;;22.50;99.90;;;;;;4964239;28;20169;-74
2022/08/02 08:54:04;;;;;;;;;;;22.90;99.90;;;;;;4966032;28;20016;-74
2022/08/02 08:56:34;;;;;;;;;;;23.50;99.90;;;;;;4968668;28;20933;-74
2022/08/02 08:58:59;;;;;;;;;;;23.60;99.90;;;;;;4963910;28;19945;-73
2022/08/02 09:01:25;;;;;;;;;;;23.70;99.90;;;;;;4961633;28;19910;-74
2022/08/02 09:03:50;;;;;;;;;;;23.50;99.90;;;;;;4965294;28;20478;-75
2022/08/02 09:06:16;;;;;;;;;;;23.30;99.90;;;;;;4967996;28;19917;-74
2022/08/02 09:08:42;;;;;;;;;;;23.60;99.90;;;;;;4961833;28;21341;-74
2022/08/02 09:11:14;;;;;;;;;;;23.80;99.90;;;;;;4962045;28;19918;-74
2022/08/02 09:13:47;;;;;;;;;;;23.80;99.90;;;;;;4968744;28;19937;-74
2022/08/02 09:16:13;;;;;;;;;;;23.70;99.90;;;;;;4968389;28;19925;-74
2022/08/02 09:18:39;;;;;;;;;;;23.40;99.90;;;;;;4966559;28;20359;-74
2022/08/02 09:21:06;;;;;;;;;;;23.30;99.90;;;;;;4962683;28;20409;-73
2022/08/02 09:23:36;;;;;;;;;;;23.10;99.90;;;;;;4963988;28;20147;-73
2022/08/02 09:26:02;;;;;;;;;;;23.00;99.90;;;;;;4959436;28;19922;-74
2022/08/02 09:28:29;;;;;;;;;;;22.90;99.90;;;;;;4960706;28;21502;-74
2022/08/02 09:30:55;;;;;;;;;;;22.90;99.90;;;;;;4957089;28;20384;-73
2022/08/02 09:33:25;;;;;;;;;;;23.00;99.90;;;;;;4952645;28;19976;-76
2022/08/02 09:35:58;;;;;;;;;;;23.00;99.90;;;;;;4954283;28;19964;-74
2022/08/02 09:38:23;;;;;;;;;;;23.20;99.90;;;;;;4963127;28;19959;-73
2022/08/02 09:40:49;;;;;;;;;;;23.50;99.90;;;;;;4968940;28;20039;-73
2022/08/02 09:43:16;;;;;;;;;;;23.30;99.90;;;;;;4967251;28;19925;-73
2022/08/02 09:45:41;;;;;;;;;;;23.30;99.90;;;;;;4963756;28;19917;-75
2022/08/02 09:48:07;;;;;;;;;;;23.30;99.90;;;;;;4964151;28;20024;-74
2022/08/02 09:50:37;;;;;;;;;;;23.40;99.90;;;;;;4965431;28;19918;-75
2022/08/02 09:53:03;;;;;;;;;;;23.70;99.90;;;;;;4968227;28;20377;-74
2022/08/02 09:55:29;;;;;;;;;;;23.50;99.90;;;;;;4970310;28;19914;-74
2022/08/02 09:57:55;;;;;;;;;;;23.30;99.90;;;;;;4954926;28;20078;-75
2022/08/02 10:00:20;;;;;;;;;;;23.30;99.90;;;;;;4968628;28;20000;-74
2022/08/02 10:03:05;;;;;;;;;;;23.80;99.90;;;;;;4971249;28;19913;-74
2022/08/02 10:05:44;;;;;;;;;;;24.50;99.90;;;;;;4610535;28;9999919;-76
2022/08/02 10:08:09;;;;;;;;;;;24.80;99.90;;;;;;4950773;28;20094;-74
2022/08/02 10:10:35;;;;;;;;;;;24.80;99.90;;;;;;4956377;28;20386;-74
2022/08/02 10:13:01;;;;;;;;;;;24.70;99.90;;;;;;4960966;28;19918;-75
2022/08/02 10:15:27;;;;;;;;;;;24.40;99.90;;;;;;4962192;28;19960;-74
2022/08/02 10:17:52;;;;;;;;;;;24.00;99.90;;;;;;4961432;28;19961;-75
2022/08/02 10:20:18;;;;;;;;;;;23.60;99.90;;;;;;4961525;28;19913;-74
2022/08/02 10:22:44;;;;;;;;;;;23.00;99.90;;;;;;4959195;28;19928;-74
2022/08/02 10:25:10;;;;;;;;;;;22.80;99.90;;;;;;4957562;28;20155;-75
2022/08/02 10:27:37;;;;;;;;;;;22.90;99.90;;;;;;4962721;28;19921;-74
2022/08/02 10:30:02;;;;;;;;;;;23.10;99.90;;;;;;4966773;28;19975;-74
2022/08/02 10:32:39;;;;;;;;;;;23.60;99.90;;;;;;4960594;28;19918;-74
2022/08/02 10:35:13;;;;;;;;;;;23.70;99.90;;;;;;4970917;28;19914;-75
2022/08/02 10:37:40;;;;;;;;;;;24.10;99.90;;;;;;4965478;28;20004;-74
2022/08/02 10:40:21;;;;;;;;;;;24.10;99.90;;;;;;4967549;28;19929;-74
2022/08/02 10:42:48;;;;;;;;;;;24.10;99.90;;;;;;4970571;28;20036;-74
2022/08/02 10:45:15;;;;;;;;;;;24.70;99.90;;;;;;4972166;28;19918;-74
2022/08/02 10:48:00;;;;;;;;;;;24.80;99.90;;;;;;4971972;28;19917;-74
2022/08/02 10:50:44;;;;;;;;;;;25.80;99.90;;;;;;4948925;28;19918;-75
2022/08/02 10:53:18;;;;;;;;;;;27.00;99.90;;;;;;4964712;28;19914;-73
2022/08/02 10:55:44;;;;;;;;;;;27.20;99.90;;;;;;4967240;28;19925;-74
2022/08/02 10:58:20;;;;;;;;;;;27.30;99.90;;;;;;4971913;28;20569;-74
2022/08/02 11:00:46;;;;;;;;;;;27.80;99.90;;;;;;4969311;28;20214;-74
2022/08/02 11:03:35;;;;;;;;;;;26.90;99.90;;;;;;4964588;28;20033;-75
2022/08/02 11:06:04;;;;;;;;;;;26.20;99.90;;;;;;4955253;28;20477;-75
2022/08/02 11:08:30;;;;;;;;;;;25.50;99.90;;;;;;4965587;28;20037;-74
2022/08/02 11:10:59;;;;;;;;;;;25.20;99.90;;;;;;4963682;28;21779;-75
2022/08/02 11:13:25;;;;;;;;;;;25.30;99.90;;;;;;4966835;28;19928;-73
2022/08/02 11:15:55;;;;;;;;;;;25.10;99.90;;;;;;4966787;28;19918;-73
2022/08/02 11:18:21;;;;;;;;;;;24.70;99.90;;;;;;4963385;28;20051;-75
2022/08/02 11:21:07;;;;;;;;;;;24.50;99.90;;;;;;4943421;28;19913;-74
2022/08/02 11:23:36;;;;;;;;;;;24.70;99.90;;;;;;4965169;28;21812;-74
2022/08/02 11:26:23;;;;;;;;;;;24.50;99.90;;;;;;4962267;28;20315;-75
2022/08/02 11:28:48;;;;;;;;;;;24.50;99.90;;;;;;4966731;28;19972;-74
2022/08/02 11:31:14;;;;;;;;;;;24.30;99.90;;;;;;4965351;28;20401;-74
2022/08/02 11:33:41;;;;;;;;;;;24.30;99.90;;;;;;4968485;28;19929;-75
2022/08/02 11:36:07;;;;;;;;;;;24.10;99.90;;;;;;4964813;28;20032;-75
2022/08/02 11:38:32;;;;;;;;;;;24.30;99.90;;;;;;4963391;28;20369;-74
2022/08/02 11:40:58;;;;;;;;;;;24.00;99.90;;;;;;4964606;28;20558;-75
2022/08/02 11:43:29;;;;;;;;;;;24.10;99.90;;;;;;4966418;28;19925;-76
2022/08/02 11:45:56;;;;;;;;;;;24.10;99.90;;;;;;4950451;28;19918;-76
2022/08/02 11:48:34;;;;;;;;;;;24.50;99.90;;;;;;4965851;28;19925;-76
2022/08/02 11:51:10;;;;;;;;;;;24.70;99.90;;;;;;4967519;28;20583;-77
2022/08/02 11:53:52;;;;;;;;;;;25.50;99.90;;;;;;4970953;28;19925;-75
2022/08/02 11:56:28;;;;;;;;;;;25.60;99.90;;;;;;4950494;28;21619;-76
2022/08/02 11:59:07;;;;;;;;;;;25.20;99.90;;;;;;4961066;28;19960;-76
2022/08/02 12:01:33;;;;;;;;;;;24.70;99.90;;;;;;4970289;28;20457;-76
2022/08/02 12:04:00;;;;;;;;;;;24.70;99.90;;;;;;4968961;28;19947;-76
2022/08/02 12:06:29;;;;;;;;;;;24.50;99.90;;;;;;4956291;28;19913;-76
2022/08/02 12:09:13;;;;;;;;;;;24.40;99.90;;;;;;4963077;28;19944;-76
2022/08/02 12:11:40;;;;;;;;;;;24.30;99.90;;;;;;4960755;28;19918;-75
2022/08/02 12:14:06;;;;;;;;;;;24.10;99.90;;;;;;4953015;28;19921;-76
2022/08/02 12:19:17;;;;;;;;;;;23.80;99.90;;;;;;4949509;28;19995;-77
2022/08/02 12:21:43;;;;;;;;;;;23.70;99.90;;;;;;4954942;28;20000;-76
2022/08/02 12:24:09;;;;;;;;;;;24.00;99.90;;;;;;4960486;28;22051;-74
2022/08/02 12:26:45;;;;;;;;;;;24.40;99.90;;;;;;4954569;28;20524;-77
2022/08/02 12:29:11;;;;;;;;;;;24.90;99.90;;;;;;4947612;28;20369;-76
2022/08/02 12:31:46;;;;;;;;;;;25.60;99.90;;;;;;4952473;28;19920;-76
2022/08/02 12:34:15;;;;;;;;;;;26.00;99.90;;;;;;4627415;28;9999708;-76
2022/08/02 12:36:41;;;;;;;;;;;26.10;99.90;;;;;;4975898;28;19977;-81
2022/08/02 12:39:10;;;;;;;;;;;26.50;99.90;;;;;;4979201;28;20365;-77
2022/08/02 12:41:36;;;;;;;;;;;27.20;99.90;;;;;;4979515;28;19929;-77
2022/08/02 12:44:02;;;;;;;;;;;27.70;99.90;;;;;;4983062;28;19917;-78
2022/08/02 12:46:27;;;;;;;;;;;27.90;99.90;;;;;;4977760;28;19968;-77
2022/08/02 12:48:53;;;;;;;;;;;28.20;99.90;;;;;;4987960;28;19925;-76
2022/08/02 12:51:24;;;;;;;;;;;28.60;99.90;;;;;;4980399;28;19948;-77
2022/08/02 12:53:50;;;;;;;;;;;28.50;99.90;;;;;;4979527;28;19913;-77
2022/08/02 12:56:25;;;;;;;;;;;28.10;99.90;;;;;;4975579;28;19910;-77
2022/08/02 12:58:51;;;;;;;;;;;27.90;99.90;;;;;;4964828;28;19917;-76
2022/08/02 13:01:23;;;;;;;;;;;27.80;99.90;;;;;;4964720;28;19916;-76
2022/08/02 13:03:50;;;;;;;;;;;27.50;99.90;;;;;;4967247;28;20408;-78
2022/08/02 13:06:15;;;;;;;;;;;27.40;99.90;;;;;;4951326;28;20013;-77
2022/08/02 13:08:41;;;;;;;;;;;27.00;99.90;;;;;;4970155;28;19929;-77
2022/08/02 13:11:07;;;;;;;;;;;27.00;99.90;;;;;;4967001;28;20320;-77
2022/08/02 13:13:33;;;;;;;;;;;26.90;99.90;;;;;;4980494;28;19988;-78
2022/08/02 13:15:58;;;;;;;;;;;26.30;99.90;;;;;;4975975;28;19925;-77
2022/08/02 13:18:24;;;;;;;;;;;25.90;99.90;;;;;;4975498;28;19929;-76
2022/08/02 13:20:49;;;;;;;;;;;25.80;99.90;;;;;;4949777;28;20099;-76
2022/08/02 13:23:15;;;;;;;;;;;25.80;99.90;;;;;;4980930;28;19940;-76
2022/08/02 13:25:41;;;;;;;;;;;25.80;99.90;;;;;;4971736;28;19914;-76
2022/08/02 13:28:07;;;;;;;;;;;25.80;99.90;;;;;;4974081;28;19918;-76
2022/08/02 13:30:32;;;;;;;;;;;25.80;99.90;;;;;;4971520;28;20016;-77
2022/08/02 13:32:58;;;;;;;;;;;25.80;99.90;;;;;;4974335;28;20060;-76
2022/08/02 13:35:23;;;;;;;;;;;26.00;99.90;;;;;;4983435;28;19921;-77
2022/08/02 13:37:49;;;;;;;;;;;25.90;99.90;;;;;;4976379;28;19914;-77
2022/08/02 13:40:15;;;;;;;;;;;26.20;99.90;;;;;;4971481;28;19914;-78
2022/08/02 13:42:40;;;;;;;;;;;26.50;99.90;;;;;;4971008;28;20004;-78
2022/08/02 13:45:07;;;;;;;;;;;26.30;99.90;;;;;;4973552;28;19914;-77
2022/08/02 13:47:33;;;;;;;;;;;26.10;99.90;;;;;;4963183;28;20000;-78
2022/08/02 13:49:59;;;;;;;;;;;26.30;99.90;;;;;;4967769;28;19920;-78
2022/08/02 13:52:24;;;;;;;;;;;25.90;99.90;;;;;;4980462;28;19914;-77
2022/08/02 13:54:50;;;;;;;;;;;25.70;99.90;;;;;;4973219;28;20365;-79
2022/08/02 13:57:15;;;;;;;;;;;25.60;99.90;;;;;;4974154;28;19918;-77
2022/08/02 13:59:41;;;;;;;;;;;25.70;99.90;;;;;;4974290;28;19949;-78
2022/08/02 14:02:06;;;;;;;;;;;26.00;99.90;;;;;;4954713;28;19996;-78
2022/08/02 14:04:32;;;;;;;;;;;26.20;99.90;;;;;;4939620;28;20403;-76
2022/08/02 14:06:57;;;;;;;;;;;26.30;99.90;;;;;;4958030;28;19996;-77
2022/08/02 14:09:23;;;;;;;;;;;26.30;99.90;;;;;;4957599;28;20375;-75
2022/08/02 14:11:49;;;;;;;;;;;26.50;99.90;;;;;;4965250;28;19975;-77
2022/08/02 14:14:14;;;;;;;;;;;26.70;99.90;;;;;;4962486;28;20094;-77
2022/08/02 14:16:40;;;;;;;;;;;27.10;99.90;;;;;;4949062;28;20008;-77
2022/08/02 14:19:05;;;;;;;;;;;27.30;99.90;;;;;;4964198;28;19913;-77
2022/08/02 14:21:31;;;;;;;;;;;26.90;99.90;;;;;;4950062;28;19973;-78